No es requerida especial atención con respecto al clima.   -   No hay avisos meteorológicos

Informes METAR

 

LEZL - Sevilla, Spain
Distancia de la estación: ESE 25km
Actualización: 22/09/2017 10:00
Despejado
Despejado
 Viento de calm
Viento: Calma
Temperatura: 20°C
Rocío: 15°C
Humedad: 73%
Barómetro: 1017 hPa
Resumen: Despejado
Visibilidad: mayor de 10 km
2017/09/22 08:00 LEZL 220800Z 00000KT CAVOK 20/15 Q1017 NOSIG
LEMO - Morón, Spain
Distancia de la estación: SE 65km
Actualización: 22/09/2017 10:00
Despejado
Despejado
 Viento de variable
Viento: variable 4 km/h
Temperatura: 19°C
Rocío: 11°C
Humedad: 60%
Barómetro: 1017 hPa
Resumen: Despejado
Visibilidad: mayor de 10 km
2017/09/22 08:00 LEMO 220800Z VRB02KT CAVOK 19/11 Q1017 NOSIG
LEJR - Jeréz, Spain
Distancia de la estación: S 87km
Actualización: 22/09/2017 10:00
Parcialmente nuboso
Parcialmente nuboso
 Viento de calm
Viento: Calma
Temperatura: 19°C
Rocío: 16°C
Humedad: 83%
Barómetro: 1017 hPa
Nubes: Parcialmente nuboso
Visibilidad: 8 km
2017/09/22 08:00 LEJR 220800Z 00000KT 8000 NSC 19/16 Q1017
 
LERT - Rota, Spain
Distancia de la estación: S 101km
Actualización: 22/09/2017 10:00
Parcialmente nuboso
Parcialmente nuboso
 Viento de calm
Viento: Calma
Temperatura: 21°C
Rocío: 19°C
Humedad: 88%
Barómetro: 1017 hPa
Nubes: Parcialmente nuboso
Visibilidad: 8 km
2017/09/22 08:00 LERT 220800Z 00000KT 8000 NSC 21/19 Q1017 NOSIG
LEMG - Málaga, Spain
Distancia de la estación: ESE 178km
Actualización: 22/09/2017 10:00
Despejado
Despejado
 Viento de ONO
Viento: ONO 11 km/h
Temperatura: 18°C
Rocío: 12°C
Humedad: 68%
Barómetro: 1018 hPa
Resumen: Despejado
Visibilidad: mayor de 10 km
2017/09/22 08:00 LEMG 220800Z 29006KT 260V320 CAVOK 18/12 Q1018 NOSIG
LEBA - Córdoba, Spain
Distancia de la estación: ENE 123km
Actualización: 22/09/2017 10:00
Despejado
Despejado
 Viento de variable
Viento: variable 4 km/h
Temperatura: 20°C
Rocío: 9°C
Humedad: 49%
Barómetro: 1018 hPa
Resumen: Despejado
Visibilidad: mayor de 10 km
2017/09/22 08:00 LEBA 220800Z VRB02KT CAVOK 20/09 Q1018
 
LEGR - Granada, Spain
Distancia de la estación: E 215km
Actualización: 22/09/2017 10:00
Despejado
Despejado
 Viento de calm
Viento: Calma
Temperatura: 15°C
Rocío: 6°C
Humedad: 55%
Barómetro: 1020 hPa
Resumen: Despejado
Visibilidad: mayor de 10 km
2017/09/22 08:00 LEGR 220800Z 00000KT CAVOK 15/06 Q1020
LEAM - Almería, Spain
Distancia de la estación: E 344km
Actualización: 22/09/2017 10:00
Despejado
Despejado
 Viento de NNO
Viento: NNO 2 km/h
Temperatura: 23°C
Rocío: 13°C
Humedad: 53%
Barómetro: 1017 hPa
Resumen: Despejado
Visibilidad: mayor de 10 km
2017/09/22 08:00 LEAM 220800Z 34001KT CAVOK 23/13 Q1017
GCLP - Las Palmas/Aeropuerto, Spain
Distancia de la estación: SO 1410km
Actualización: 22/09/2017 10:00
Parcialmente nuboso
Parcialmente nuboso
 Viento de N
Viento: N 35 km/h
Temperatura: 23°C
Rocío: 14°C
Humedad: 57%
Barómetro: 1016 hPa
Nubes: Parcialmente nuboso
Visibilidad: 10 km
Detalles de las nubes: Parcialmente nuboso 1219 m
2017/09/22 08:00 GCLP 220800Z 36019KT 9999 SCT040 23/14 Q1016 NOSIG
 
LEMD - Madrid/Barajas, Spain
Distancia de la estación: NNE 402km
Actualización: 22/09/2017 10:00
Despejado
Despejado
 Viento de E
Viento: E 6 km/h
Temperatura: 20°C
Rocío: 11°C
Humedad: 56%
Barómetro: 1019 hPa
Resumen: Despejado
Visibilidad: mayor de 10 km
2017/09/22 08:00 LEMD 220800Z 09003KT 030V130 CAVOK 20/11 Q1019 NOSIG
LEVD - Valladolid, Spain
Distancia de la estación: N 492km
Actualización: 22/09/2017 10:00
Despejado
Despejado
 Viento de NE
Viento: NE 26 km/h
Temperatura: 14°C
Rocío: 10°C
Humedad: 77%
Barómetro: 1020 hPa
Resumen: Despejado
Visibilidad: mayor de 10 km
2017/09/22 08:00 LEVD 220800Z 05014KT CAVOK 14/10 Q1020
LEBL - Barcelona, Spain
Distancia de la estación: NE 816km
Actualización: 22/09/2017 10:00
Muy nuboso
Muy nuboso
 Viento de variable
Viento: variable 9 km/h
Temperatura: 20°C
Rocío: 17°C
Humedad: 83%
Barómetro: 1020 hPa
Nubes: Muy nuboso
Visibilidad: 10 km
Detalles de las nubes: Poco nuboso 610 m
Muy nuboso 1341 m
2017/09/22 08:00 LEBL 220800Z VRB05KT 9999 FEW020 BKN044 20/17 Q1020 NOSIG